Time;durP1;ratioP1;P1;durP2;ratioP2;P2;SDS_P1;SDS_P2;PMS_P1;PMS_P2;Temp;Humidity;BMP_temperature;BMP_pressure;BME280_temperature;BME280_humidity;BME280_pressure;Samples;Min_cycle;Max_cycle;Signal;HPM_P1;HPM_P2
2022/11/21 00:00:49;;;;;;;10.98;5.60;;;;;;;2.36;70.56;100234.30;1728487;82;21067;-60
2022/11/21 00:03:16;;;;;;;10.63;5.72;;;;;;;2.40;70.50;100227.20;1708332;82;21062;-60
2022/11/21 00:05:45;;;;;;;13.22;6.78;;;;;;;2.37;70.35;100215.22;1710014;82;21126;-60
2022/11/21 00:08:16;;;;;;;12.93;7.17;;;;;;;2.34;70.29;100217.96;1713553;82;21118;-60
2022/11/21 00:10:43;;;;;;;12.15;6.92;;;;;;;2.30;70.17;100220.30;1751484;80;21236;-60
2022/11/21 00:13:13;;;;;;;11.08;6.17;;;;;;;2.27;70.30;100222.22;1746488;80;22233;-60
2022/11/21 00:15:42;;;;;;;13.13;6.97;;;;;;;2.36;70.20;100214.83;1752556;80;21635;-60
2022/11/21 00:18:10;;;;;;;8.68;5.47;;;;;;;2.39;70.09;100210.78;1704329;82;21038;-60
2022/11/21 00:20:40;;;;;;;9.63;6.40;;;;;;;2.49;69.84;100206.42;1707230;82;21100;-60
2022/11/21 00:23:08;;;;;;;13.65;6.65;;;;;;;2.53;69.78;100205.38;1711624;82;21251;-60
2022/11/21 00:25:35;;;;;;;13.28;6.85;;;;;;;2.55;69.80;100204.36;1708616;82;21061;-60
2022/11/21 00:28:04;;;;;;;12.43;6.70;;;;;;;2.50;69.93;100207.65;1708458;83;21535;-60
2022/11/21 00:30:32;;;;;;;15.03;8.03;;;;;;;2.49;69.95;100195.59;1704026;82;20996;-60
2022/11/21 00:32:59;;;;;;;12.45;7.12;;;;;;;2.47;69.87;100192.68;1706986;83;21110;-60
2022/11/21 00:35:27;;;;;;;12.45;6.70;;;;;;;2.40;69.85;100185.21;1707475;83;21074;-60
2022/11/21 00:37:54;;;;;;;14.18;6.95;;;;;;;2.37;69.41;100179.30;1705163;83;21008;-60
2022/11/21 00:40:22;;;;;;;11.45;5.92;;;;;;;2.39;69.48;100175.73;1704156;83;21082;-60
2022/11/21 00:42:50;;;;;;;13.13;6.70;;;;;;;2.44;69.36;100175.95;1703833;83;21078;-61
2022/11/21 00:45:18;;;;;;;17.10;7.20;;;;;;;2.42;69.49;100176.02;1705995;82;21600;-61
2022/11/21 00:47:46;;;;;;;13.70;7.30;;;;;;;2.38;69.72;100172.73;1704423;83;21123;-59
2022/11/21 00:50:13;;;;;;;11.25;5.60;;;;;;;2.35;69.57;100170.75;1712089;82;21075;-60
2022/11/21 00:52:39;;;;;;;14.35;6.75;;;;;;;2.28;69.58;100168.92;1747993;80;21034;-59
2022/11/21 00:55:07;;;;;;;14.28;7.08;;;;;;;2.26;69.64;100175.12;1715445;82;21016;-60
2022/11/21 00:57:34;;;;;;;10.28;6.30;;;;;;;2.29;69.68;100171.08;1713874;82;21521;-60
2022/11/21 01:00:00;;;;;;;13.40;6.40;;;;;;;2.25;69.74;100163.04;1707836;82;22990;-60
2022/11/21 01:02:27;;;;;;;16.32;6.60;;;;;;;2.23;69.74;100156.63;1711224;82;21030;-60
2022/11/21 01:04:53;;;;;;;15.20;7.00;;;;;;;2.25;70.08;100151.36;1749459;80;21565;-60
2022/11/21 01:07:20;;;;;;;14.75;7.83;;;;;;;2.28;70.22;100154.64;1752037;80;21057;-60
2022/11/21 01:09:47;;;;;;;14.35;7.35;;;;;;;2.26;70.21;100156.48;1712274;82;21101;-60
2022/11/21 01:12:14;;;;;;;11.30;5.65;;;;;;;2.24;70.14;100162.20;1719355;82;21222;-60
2022/11/21 01:14:41;;;;;;;13.15;6.50;;;;;;;2.20;70.05;100154.17;1715989;82;21098;-60
2022/11/21 01:17:07;;;;;;;13.35;6.92;;;;;;;2.19;69.89;100156.41;1714245;82;21054;-60
2022/11/21 01:19:35;;;;;;;13.25;5.60;;;;;;;2.23;69.76;100148.83;1716451;82;21268;-60
2022/11/21 01:22:03;;;;;;;9.23;5.37;;;;;;;2.29;69.69;100163.29;1719010;82;21117;-61
2022/11/21 01:24:30;;;;;;;11.53;6.80;;;;;;;2.34;69.87;100173.82;1690960;84;21260;-61
2022/11/21 01:26:56;;;;;;;14.90;6.35;;;;;;;2.35;69.96;100175.48;1690641;83;21089;-61
2022/11/21 01:29:23;;;;;;;15.40;6.83;;;;;;;2.34;69.96;100169.92;1697662;83;21073;-60
2022/11/21 01:31:50;;;;;;;15.85;7.85;;;;;;;2.32;70.04;100183.45;1696490;83;21031;-60
2022/11/21 01:34:17;;;;;;;13.40;7.47;;;;;;;2.33;70.05;100178.62;1696655;84;21036;-61
2022/11/21 01:36:44;;;;;;;20.20;8.03;;;;;;;2.29;69.86;100166.72;1717052;82;21521;-61
2022/11/21 01:39:11;;;;;;;15.78;8.13;;;;;;;2.26;69.84;100158.24;1698634;83;21042;-61
2022/11/21 01:41:43;;;;;;;12.90;6.95;;;;;;;2.30;69.71;100151.97;1692706;83;21005;-61
2022/11/21 01:44:22;;;;;;;12.78;7.53;;;;;;;2.32;69.62;100154.88;1685705;83;21115;-61
2022/11/21 01:46:50;;;;;;;14.70;8.50;;;;;;;2.33;69.58;100134.94;1680897;83;20983;-61
2022/11/21 01:49:29;;;;;;;11.95;7.00;;;;;;;2.33;69.76;100135.77;1694261;83;21322;-61
2022/11/21 01:52:11;;;;;;;16.87;7.87;;;;;;;2.28;69.78;100129.97;1700034;83;21516;-61
2022/11/21 01:54:46;;;;;;;13.90;7.90;;;;;;;2.25;69.93;100141.80;1696795;84;21089;-61
2022/11/21 01:57:27;;;;;;;12.18;5.80;;;;;;;2.21;69.92;100140.28;1697203;83;21098;-61
2022/11/21 02:00:07;;;;;;;13.32;6.87;;;;;;;2.17;69.93;100159.06;1695931;82;21028;-60
2022/11/21 02:02:36;;;;;;;15.15;7.03;;;;;;;2.16;70.01;100166.93;1719428;82;21577;-60
2022/11/21 02:05:04;;;;;;;13.25;7.03;;;;;;;2.17;70.23;100157.77;1683237;83;21050;-60
2022/11/21 02:07:35;;;;;;;12.35;5.85;;;;;;;2.23;70.03;100169.13;1692442;83;21298;-60
2022/11/21 02:10:01;;;;;;;13.55;7.25;;;;;;;2.30;69.94;100174.87;1690875;83;21139;-60
2022/11/21 02:12:51;;;;;;;14.85;7.70;;;;;;;2.39;69.91;100171.83;1695525;83;21093;-60
2022/11/21 02:15:18;;;;;;;15.98;7.03;;;;;;;2.45;69.84;100158.99;1688209;83;21166;-61
2022/11/21 02:17:45;;;;;;;16.82;8.90;;;;;;;2.52;70.07;100140.05;1719827;82;21742;-60
2022/11/21 02:20:14;;;;;;;14.95;7.12;;;;;;;2.55;69.96;100138.13;1712526;82;22151;-61
2022/11/21 02:23:14;;;;;;;17.00;8.78;;;;;;;2.54;69.71;100139.50;1683101;83;21152;-60
2022/11/21 02:25:41;;;;;;;13.13;7.50;;;;;;;2.50;69.71;100147.08;1709271;82;21054;-61
2022/11/21 02:28:13;;;;;;;16.25;7.67;;;;;;;2.44;69.71;100147.38;1709191;82;21996;-61
2022/11/21 02:30:40;;;;;;;16.37;8.00;;;;;;;2.44;69.78;100152.14;1703018;82;22082;-61
2022/11/21 02:33:07;;;;;;;11.80;7.33;;;;;;;2.40;69.59;100164.44;1710099;83;21118;-61
2022/11/21 02:35:34;;;;;;;10.63;5.65;;;;;;;2.38;69.59;100175.80;1710316;83;21030;-61
2022/11/21 02:38:23;;;;;;;14.58;7.30;;;;;;;2.40;69.63;100176.13;1709844;83;21066;-60
2022/11/21 02:40:58;;;;;;;14.07;7.67;;;;;;;2.49;69.61;100173.95;1710001;82;21758;-60
2022/11/21 02:43:32;;;;;;;13.60;7.55;;;;;;;2.57;69.65;100165.33;1719975;82;21051;-60
2022/11/21 02:45:59;;;;;;;13.53;7.12;;;;;;;2.60;69.49;100166.48;1704687;82;21019;-60
2022/11/21 02:48:25;;;;;;;15.03;8.13;;;;;;;2.56;69.45;100149.37;1700462;82;21110;-61
2022/11/21 02:50:52;;;;;;;18.15;8.50;;;;;;;2.48;69.37;100149.75;1707346;82;21677;-60
2022/11/21 02:53:20;;;;;;;16.02;8.68;;;;;;;2.39;69.36;100147.16;1708622;82;21702;-61
2022/11/21 02:55:47;;;;;;;20.50;10.55;;;;;;;2.28;69.39;100137.77;1711869;82;21404;-60
2022/11/21 02:58:14;;;;;;;15.58;8.45;;;;;;;2.17;69.57;100139.60;1696944;82;21067;-60
2022/11/21 03:00:41;;;;;;;14.55;6.85;;;;;;;2.19;69.70;100148.61;1696170;83;21032;-60
2022/11/21 03:03:08;;;;;;;14.75;7.90;;;;;;;2.23;69.79;100152.26;1712874;83;21019;-61
2022/11/21 03:05:35;;;;;;;21.33;9.30;;;;;;;2.27;69.76;100150.38;1740723;80;21233;-61
2022/11/21 03:08:02;;;;;;;17.98;9.88;;;;;;;2.28;69.83;100143.42;1747725;80;21003;-61
2022/11/21 03:10:30;;;;;;;17.65;9.78;;;;;;;2.26;69.98;100146.09;1741404;80;21118;-60
2022/11/21 03:12:59;;;;;;;13.80;8.50;;;;;;;2.24;70.15;100154.42;1700184;83;21122;-60
2022/11/21 03:15:28;;;;;;;15.88;8.65;;;;;;;2.21;70.25;100166.25;1705786;82;21090;-60
2022/11/21 03:17:55;;;;;;;16.30;7.55;;;;;;;2.17;70.33;100181.56;1739959;80;22099;-59
2022/11/21 03:20:22;;;;;;;17.20;8.88;;;;;;;2.13;70.42;100180.88;1757718;80;21497;-60
2022/11/21 03:22:52;;;;;;;21.87;9.35;;;;;;;2.13;70.42;100180.88;1740993;80;21032;-61
2022/11/21 03:25:19;;;;;;;18.98;9.63;;;;;;;2.13;70.46;100179.59;1703014;82;21032;-60
2022/11/21 03:27:45;;;;;;;15.80;8.88;;;;;;;2.13;70.42;100174.39;1699825;82;21090;-60
2022/11/21 03:30:13;;;;;;;14.30;7.55;;;;;;;2.22;70.33;100169.23;1686678;83;22073;-60
2022/11/21 03:32:40;;;;;;;12.07;6.80;;;;;;;2.29;70.26;100168.48;1694402;83;21015;-60
2022/11/21 03:35:07;;;;;;;18.50;8.53;;;;;;;2.36;70.19;100169.85;1693679;83;21052;-60
2022/11/21 03:37:35;;;;;;;17.32;8.78;;;;;;;2.32;70.25;100172.20;1742794;80;20993;-60
2022/11/21 03:40:03;;;;;;;17.35;8.70;;;;;;;2.29;70.28;100173.67;1701780;82;21074;-60
2022/11/21 03:42:29;;;;;;;16.97;9.03;;;;;;;2.25;70.36;100177.31;1701239;82;22280;-60
2022/11/21 03:44:56;;;;;;;19.05;9.63;;;;;;;2.17;70.46;100181.56;1691803;82;21508;-60
2022/11/21 03:47:23;;;;;;;16.65;8.90;;;;;;;2.12;70.50;100177.06;1741290;80;21512;-60
2022/11/21 03:49:50;;;;;;;17.62;9.48;;;;;;;2.14;70.64;100176.09;1747154;80;21007;-60
2022/11/21 03:52:16;;;;;;;13.83;7.53;;;;;;;2.12;70.66;100157.16;1704282;83;21067;-60
2022/11/21 03:54:43;;;;;;;12.53;8.68;;;;;;;2.14;70.58;100146.70;1693139;83;21896;-60
2022/11/21 03:57:10;;;;;;;18.12;9.43;;;;;;;2.22;70.39;100156.26;1706342;83;21056;-60
2022/11/21 03:59:37;;;;;;;18.07;8.83;;;;;;;2.28;70.34;100156.41;1739805;80;21019;-62
2022/11/21 04:02:04;;;;;;;19.52;11.05;;;;;;;2.29;70.43;100157.62;1744030;80;21081;-61
2022/11/21 04:04:31;;;;;;;19.25;9.63;;;;;;;2.32;70.58;100158.78;1742618;80;21114;-61
2022/11/21 04:06:58;;;;;;;28.32;10.18;;;;;;;2.37;70.76;100159.83;1746910;80;21251;-61
2022/11/21 04:09:24;;;;;;;18.20;9.23;;;;;;;2.38;70.65;100157.16;1742983;80;21303;-60
2022/11/21 04:11:52;;;;;;;19.90;9.53;;;;;;;2.38;70.59;100155.86;1739398;80;22005;-60
2022/11/21 04:14:18;;;;;;;14.90;8.08;;;;;;;2.35;70.42;100152.11;1740181;80;21448;-60
2022/11/21 04:16:45;;;;;;;16.85;8.33;;;;;;;2.31;70.12;100139.38;1742437;80;21559;-61
2022/11/21 04:19:12;;;;;;;18.10;8.23;;;;;;;2.30;69.98;100140.28;1741702;80;21201;-60
2022/11/21 04:21:39;;;;;;;19.60;9.40;;;;;;;2.30;70.09;100133.33;1742318;80;21043;-60
2022/11/21 04:24:07;;;;;;;15.70;9.23;;;;;;;2.29;70.27;100132.96;1744669;80;21074;-60
2022/11/21 04:26:33;;;;;;;15.40;9.08;;;;;;;2.25;70.38;100124.92;1703547;82;21896;-61
2022/11/21 04:29:00;;;;;;;19.12;10.25;;;;;;;2.18;70.38;100115.77;1704024;82;21583;-60
2022/11/21 04:31:26;;;;;;;17.70;8.55;;;;;;;2.09;70.52;100117.53;1739560;80;21436;-60
2022/11/21 04:33:53;;;;;;;19.07;8.75;;;;;;;2.03;70.46;100119.95;1707660;82;21535;-61
2022/11/21 04:36:19;;;;;;;16.60;9.73;;;;;;;2.10;70.24;100121.80;1744002;80;21092;-60
2022/11/21 04:38:46;;;;;;;18.82;9.45;;;;;;;2.14;70.44;100118.15;1744537;80;21461;-60
2022/11/21 04:41:12;;;;;;;18.35;9.83;;;;;;;2.12;70.58;100111.73;1741689;80;21994;-60
2022/11/21 04:43:39;;;;;;;14.07;7.45;;;;;;;2.11;70.71;100112.64;1743175;80;21442;-61
2022/11/21 04:46:05;;;;;;;18.37;8.88;;;;;;;2.12;70.88;100112.17;1738848;80;21043;-60
2022/11/21 04:48:32;;;;;;;18.57;9.83;;;;;;;2.12;70.93;100119.95;1721031;82;21011;-60
2022/11/21 04:50:59;;;;;;;18.50;9.13;;;;;;;2.13;71.01;100128.97;1739512;80;21091;-60
2022/11/21 04:53:25;;;;;;;21.25;11.25;;;;;;;2.15;70.99;100118.52;1739978;80;21027;-60
2022/11/21 04:55:52;;;;;;;18.75;9.93;;;;;;;2.18;70.71;100111.41;1749456;80;22514;-60
2022/11/21 04:58:18;;;;;;;15.60;9.08;;;;;;;2.17;70.21;100106.29;1738128;80;21527;-60
2022/11/21 05:00:45;;;;;;;13.70;7.80;;;;;;;2.10;70.07;100102.33;1742922;80;21079;-60
2022/11/21 05:03:11;;;;;;;15.95;8.10;;;;;;;2.10;70.04;100093.24;1741831;80;22225;-60
2022/11/21 05:05:38;;;;;;;16.55;9.55;;;;;;;2.04;70.35;100082.25;1706790;82;20999;-60
2022/11/21 05:08:04;;;;;;;17.95;9.70;;;;;;;2.06;70.59;100074.39;1753779;80;21302;-60
2022/11/21 05:13:19;;;;;;;20.40;10.98;;;;;;;2.04;70.80;100078.36;1747602;80;21338;-60
2022/11/21 05:15:46;;;;;;;16.15;9.48;;;;;;;2.04;71.10;100082.72;1762901;80;21039;-60
2022/11/21 05:18:12;;;;;;;17.52;8.80;;;;;;;2.07;70.62;100068.73;1717820;82;21058;-60
2022/11/21 05:20:40;;;;;;;19.92;10.70;;;;;;;1.98;70.58;100061.78;1717173;82;21232;-60
2022/11/21 05:23:07;;;;;;;16.05;8.60;;;;;;;2.01;70.60;100073.78;1693938;83;21099;-61
2022/11/21 05:25:33;;;;;;;13.55;6.67;;;;;;;1.99;70.54;100073.85;1703742;83;21014;-61
2022/11/21 05:28:00;;;;;;;19.25;8.45;;;;;;;1.95;70.69;100077.53;1704032;83;21178;-60
2022/11/21 05:30:27;;;;;;;18.48;8.90;;;;;;;1.89;70.93;100070.03;1705297;82;21008;-61
2022/11/21 05:32:54;;;;;;;17.32;9.20;;;;;;;1.85;71.04;100071.11;1719960;82;21258;-60
2022/11/21 05:35:20;;;;;;;17.07;8.85;;;;;;;1.84;71.17;100075.91;1706934;82;21098;-61
2022/11/21 05:37:50;;;;;;;13.58;7.60;;;;;;;1.88;71.05;100069.64;1714296;82;21077;-60
2022/11/21 05:40:16;;;;;;;18.15;8.68;;;;;;;1.98;70.96;100066.14;1684806;83;21563;-61
2022/11/21 05:45:27;;;;;;;16.70;8.85;;;;;;;1.99;71.05;100069.95;1708326;82;21140;-60
2022/11/21 05:47:54;;;;;;;17.60;8.08;;;;;;;1.98;71.14;100074.76;1707284;82;21074;-60
2022/11/21 05:50:20;;;;;;;14.93;7.95;;;;;;;1.98;71.12;100078.65;1710680;82;21109;-60
2022/11/21 05:52:47;;;;;;;16.32;7.75;;;;;;;1.98;71.21;100090.80;1709501;82;21033;-61
2022/11/21 05:57:59;;;;;;;14.87;5.65;;;;;;;1.89;71.93;100080.41;1796349;78;22482;-60
2022/11/21 06:00:27;;;;;;;13.83;6.62;;;;;;;2.07;71.16;100079.11;1776011;78;20951;-60
2022/11/21 06:05:39;;;;;;;15.70;6.92;;;;;;;2.24;70.63;100076.53;1766962;78;21562;-60
2022/11/21 06:08:07;;;;;;;13.62;7.37;;;;;;;2.31;70.46;100073.17;1782884;78;21035;-60
2022/11/21 06:10:34;;;;;;;17.57;8.18;;;;;;;2.28;70.33;100078.52;1758653;78;20995;-61
2022/11/21 06:13:01;;;;;;;17.90;9.60;;;;;;;2.21;70.19;100066.30;1771641;79;21053;-62
2022/11/21 06:15:28;;;;;;;16.00;8.50;;;;;;;2.18;70.24;100063.85;1767736;79;21289;-60
2022/11/21 06:17:54;;;;;;;14.18;8.73;;;;;;;2.14;70.15;100067.53;1765096;79;20958;-61
2022/11/21 06:20:21;;;;;;;15.58;7.80;;;;;;;2.06;70.21;100066.61;1768789;79;21027;-60
2022/11/21 06:22:48;;;;;;;15.00;6.40;;;;;;;2.12;70.17;100060.25;1772621;79;21086;-60
2022/11/21 06:25:14;;;;;;;16.17;7.83;;;;;;;2.19;70.21;100066.84;1776487;79;21495;-61
2022/11/21 06:27:42;;;;;;;13.13;7.65;;;;;;;2.28;70.35;100078.52;1779425;79;21143;-61
2022/11/21 06:30:09;;;;;;;16.12;8.50;;;;;;;2.31;70.42;100075.77;1775224;79;21004;-61
2022/11/21 06:32:37;;;;;;;12.93;8.08;;;;;;;2.32;70.30;100064.01;1767479;79;21121;-60
2022/11/21 06:35:05;;;;;;;20.55;9.78;;;;;;;2.26;69.99;100050.50;1768324;79;21098;-60
2022/11/21 06:37:32;;;;;;;14.20;7.78;;;;;;;2.16;69.92;100055.31;1739535;81;21094;-60
2022/11/21 06:39:59;;;;;;;14.23;8.08;;;;;;;2.11;69.95;100059.89;1741222;81;21178;-59
2022/11/21 06:42:25;;;;;;;16.52;8.13;;;;;;;2.11;69.95;100059.42;1735774;80;21007;-60
2022/11/21 06:44:52;;;;;;;15.88;7.78;;;;;;;2.18;70.02;100062.09;1743521;80;21101;-58
2022/11/21 06:47:19;;;;;;;15.28;7.28;;;;;;;2.29;69.96;100065.92;1745282;80;21055;-58
2022/11/21 06:49:45;;;;;;;24.07;16.42;;;;;;;2.33;70.01;100079.95;1748501;80;21020;-59
2022/11/21 06:52:12;;;;;;;12.65;6.65;;;;;;;2.34;69.99;100075.61;1747391;80;21254;-60
2022/11/21 06:54:38;;;;;;;16.87;8.38;;;;;;;2.32;69.89;100065.30;1742440;80;21070;-63
2022/11/21 06:57:05;;;;;;;15.88;8.48;;;;;;;2.29;69.96;100078.91;1740499;81;21047;-59
2022/11/21 06:59:31;;;;;;;16.02;8.80;;;;;;;2.25;70.08;100078.20;1765736;79;21036;-60
2022/11/21 07:01:59;;;;;;;13.05;7.58;;;;;;;2.26;70.08;100068.67;1759187;79;21040;-60
2022/11/21 07:04:25;;;;;;;15.93;7.12;;;;;;;2.24;70.09;100060.95;1743904;79;21248;-61
2022/11/21 07:06:52;;;;;;;16.77;9.15;;;;;;;2.26;69.95;100087.67;1745884;79;21246;-62
2022/11/21 07:09:18;;;;;;;13.53;7.80;;;;;;;2.33;70.01;100096.83;1745369;80;21511;-61
2022/11/21 07:11:46;;;;;;;17.50;6.58;;;;;;;2.39;70.02;100092.63;1760541;80;21307;-61
2022/11/21 07:14:13;;;;;;;23.20;15.80;;;;;;;2.48;70.01;100100.88;1761086;80;21058;-60
2022/11/21 07:16:41;;;;;;;12.88;5.87;;;;;;;2.52;69.96;100103.69;1764089;80;21264;-61
2022/11/21 07:19:08;;;;;;;12.75;6.05;;;;;;;2.52;70.00;100096.75;1765425;79;21496;-61
2022/11/21 07:21:34;;;;;;;11.97;5.95;;;;;;;2.56;70.06;100090.47;1768065;80;21105;-60
2022/11/21 07:24:00;;;;;;;14.05;7.50;;;;;;;2.56;69.89;100094.83;1764009;80;21027;-61
2022/11/21 07:26:27;;;;;;;16.20;8.13;;;;;;;2.55;69.86;100087.95;1762453;80;21047;-61
2022/11/21 07:28:54;;;;;;;16.02;7.72;;;;;;;2.54;69.69;100079.33;1758468;80;21241;-61
2022/11/21 07:31:21;;;;;;;14.03;7.92;;;;;;;2.56;69.53;100073.58;1762167;80;21055;-60
2022/11/21 07:33:48;;;;;;;10.30;6.25;;;;;;;2.63;69.53;100074.58;1766012;80;21516;-63
2022/11/21 07:36:14;;;;;;;16.02;8.60;;;;;;;2.65;69.53;100074.86;1760433;80;21120;-61
2022/11/21 07:38:41;;;;;;;17.90;8.53;;;;;;;2.64;69.70;100070.60;1762708;80;21027;-60
2022/11/21 07:41:08;;;;;;;16.10;8.73;;;;;;;2.63;69.63;100071.98;1761532;80;21222;-60
2022/11/21 07:43:37;;;;;;;14.10;9.10;;;;;;;2.63;69.65;100060.28;1767488;79;21032;-60
2022/11/21 07:46:03;;;;;;;16.60;8.28;;;;;;;2.58;69.39;100068.31;1794013;79;21028;-65
2022/11/21 07:48:31;;;;;;;17.48;9.05;;;;;;;2.51;69.40;100063.89;1766373;79;21047;-60
2022/11/21 07:50:57;;;;;;;15.70;8.50;;;;;;;2.50;69.39;100066.56;1771376;79;21468;-60
2022/11/21 07:53:24;;;;;;;14.43;8.18;;;;;;;2.47;69.62;100068.88;1771873;79;21563;-60
2022/11/21 07:55:50;;;;;;;15.60;7.78;;;;;;;2.53;69.48;100067.72;1770705;79;22210;-59
2022/11/21 07:58:17;;;;;;;16.85;9.10;;;;;;;2.59;69.29;100068.23;1739236;80;21118;-60
2022/11/21 08:00:43;;;;;;;17.65;8.38;;;;;;;2.65;69.33;100072.27;1737348;81;20999;-61
2022/11/21 08:03:11;;;;;;;24.55;16.97;;;;;;;2.72;69.25;100067.59;1740355;81;21132;-61
2022/11/21 08:05:42;;;;;;;15.10;7.97;;;;;;;2.76;69.54;100069.95;1733247;81;21300;-60
2022/11/21 08:08:11;;;;;;;16.93;9.20;;;;;;;2.83;69.46;100067.03;1724956;81;21032;-61
2022/11/21 08:10:40;;;;;;;15.98;8.73;;;;;;;2.85;69.27;100071.69;1729133;81;21083;-61
2022/11/21 08:13:07;;;;;;;15.50;8.35;;;;;;;2.83;69.20;100073.53;1725526;81;21126;-61
2022/11/21 08:15:34;;;;;;;17.07;7.85;;;;;;;2.81;69.11;100071.45;1727427;81;21535;-61
2022/11/21 08:18:10;;;;;;;16.95;8.18;;;;;;;2.82;69.13;100070.08;1720050;82;21163;-61
2022/11/21 08:20:36;;;;;;;13.48;8.03;;;;;;;2.82;69.06;100063.58;1728580;82;21070;-60
2022/11/21 08:23:03;;;;;;;16.82;8.55;;;;;;;2.81;68.98;100055.86;1693510;83;21071;-61
2022/11/21 08:25:29;;;;;;;11.80;6.62;;;;;;;2.79;68.67;100055.50;1729276;81;21031;-61
2022/11/21 08:27:57;;;;;;;15.80;7.33;;;;;;;2.79;68.47;100043.81;1738038;82;21098;-61
2022/11/21 08:30:24;;;;;;;18.10;9.23;;;;;;;2.78;68.47;100055.11;1735793;81;21134;-61
2022/11/21 08:32:51;;;;;;;15.53;7.60;;;;;;;2.74;68.83;100045.81;1729534;81;21024;-58
2022/11/21 08:35:17;;;;;;;14.87;8.03;;;;;;;2.76;69.02;100035.34;1737204;81;21107;-60
2022/11/21 08:37:44;;;;;;;14.68;7.17;;;;;;;2.75;69.02;100027.98;1732034;82;21055;-60
2022/11/21 08:40:11;;;;;;;14.40;7.47;;;;;;;2.75;69.00;100032.35;1731167;81;21087;-59
2022/11/21 08:42:38;;;;;;;10.78;5.92;;;;;;;2.75;68.79;100038.38;1732222;82;21228;-59
2022/11/21 08:45:06;;;;;;;11.25;5.92;;;;;;;2.74;68.65;100022.43;1737048;81;21035;-60
2022/11/21 08:47:33;;;;;;;15.30;6.92;;;;;;;2.79;68.26;100024.32;1737582;81;21000;-60
2022/11/21 08:50:00;;;;;;;11.45;6.65;;;;;;;2.83;68.39;100016.37;1727188;82;21090;-60
2022/11/21 08:52:27;;;;;;;13.85;7.95;;;;;;;2.90;68.60;100020.30;1727970;82;21055;-60
2022/11/21 08:54:54;;;;;;;16.87;9.45;;;;;;;2.91;68.26;100014.20;1729479;81;21905;-60
2022/11/21 08:57:20;;;;;;;13.40;6.08;;;;;;;2.83;68.34;100009.87;1746225;80;21540;-60
2022/11/21 08:59:48;;;;;;;13.08;7.10;;;;;;;2.75;68.43;100007.67;1769881;80;21031;-60
2022/11/21 09:02:14;;;;;;;13.32;6.60;;;;;;;2.68;68.41;100007.16;1766738;80;20995;-60
2022/11/21 09:04:41;;;;;;;14.03;6.70;;;;;;;2.61;68.48;100014.91;1762492;80;21551;-60
2022/11/21 09:07:08;;;;;;;14.28;6.17;;;;;;;2.58;68.51;100022.86;1748515;80;21226;-60
2022/11/21 09:09:35;;;;;;;12.85;7.15;;;;;;;2.62;68.57;100021.77;1771878;80;21531;-60
2022/11/21 09:12:02;;;;;;;13.93;7.42;;;;;;;2.72;68.41;100032.07;1772052;80;21031;-60
2022/11/21 09:19:58;;;;;;;14.15;7.05;;;;;;;2.69;68.56;100030.07;1769957;80;21238;-60
2022/11/21 09:22:25;;;;;;;14.60;6.60;;;;;;;2.68;68.68;100038.33;1770880;79;21028;-60
2022/11/21 09:24:52;;;;;;;15.20;7.08;;;;;;;2.68;68.75;100037.03;1772527;80;20991;-61
2022/11/21 09:27:18;;;;;;;12.75;6.80;;;;;;;2.69;68.79;100032.67;1772946;80;21028;-60
2022/11/21 09:29:45;;;;;;;13.18;5.72;;;;;;;2.70;68.74;100027.86;1729340;81;21019;-60
2022/11/21 09:32:11;;;;;;;12.45;6.62;;;;;;;2.70;68.78;100015.70;1758444;80;21523;-60
2022/11/21 09:34:38;;;;;;;11.90;5.85;;;;;;;2.62;68.85;100029.55;1769795;80;21030;-60
2022/11/21 09:37:04;;;;;;;12.10;7.47;;;;;;;2.66;68.51;100024.59;1771074;79;21012;-60
2022/11/21 09:39:31;;;;;;;14.25;6.37;;;;;;;2.71;68.54;100022.59;1766658;79;21047;-60
2022/11/21 09:42:33;;;;;;;19.42;13.78;;;;;;;2.76;68.63;100026.25;1765834;79;20996;-60
2022/11/21 09:45:07;;;;;;;12.23;5.60;;;;;;;2.77;68.89;100028.77;1764951;79;21145;-60
2022/11/21 09:47:46;;;;;;;10.25;4.70;;;;;;;2.84;68.85;100020.19;1769089;79;21052;-60
2022/11/21 09:50:18;;;;;;;11.03;5.45;;;;;;;2.81;68.76;100009.09;1759973;80;21532;-60
2022/11/21 09:52:59;;;;;;;10.10;4.55;;;;;;;2.79;68.87;100015.66;1764204;80;21039;-60
2022/11/21 09:55:46;;;;;;;11.63;6.17;;;;;;;2.81;68.96;100018.18;1765028;80;21086;-59
2022/11/21 09:58:41;;;;;;;13.98;5.47;;;;;;;2.79;68.77;100012.63;1764166;80;21201;-60
2022/11/21 10:01:11;;;;;;;11.90;5.15;;;;;;;2.75;68.63;100014.99;1725411;82;21122;-61
2022/11/21 10:03:49;;;;;;;12.78;6.30;;;;;;;2.76;68.58;100006.77;1689802;84;21071;-60
2022/11/21 10:06:24;;;;;;;13.00;5.22;;;;;;;2.83;68.62;100000.77;1769145;80;21481;-61
2022/11/21 10:09:15;;;;;;;11.68;6.08;;;;;;;2.94;68.70;100000.57;1772834;80;21080;-64
2022/11/21 10:14:53;;;;;;;10.45;4.95;;;;;;;3.05;68.65;99985.67;1723706;80;21007;-61
2022/11/21 10:17:41;;;;;;;13.30;5.97;;;;;;;3.04;68.58;99976.19;1774863;79;21062;-61
2022/11/21 10:20:42;;;;;;;10.68;6.40;;;;;;;3.01;68.56;99963.38;1736277;80;21082;-62
2022/11/21 10:23:46;;;;;;;11.28;6.65;;;;;;;2.97;68.63;99966.59;1763113;80;21093;-61
2022/11/21 10:26:16;;;;;;;13.55;6.67;;;;;;;2.91;68.71;99959.62;1769008;79;21144;-60
2022/11/21 10:28:58;;;;;;;11.25;5.65;;;;;;;2.90;68.78;99950.13;1770310;80;21032;-60
2022/11/21 10:31:24;;;;;;;13.35;7.05;;;;;;;2.90;68.52;99947.06;1773864;80;21036;-60
2022/11/21 10:36:36;;;;;;;10.70;5.40;;;;;;;2.90;68.84;99931.94;1796214;77;22509;-60
2022/11/21 10:39:35;;;;;;;11.90;6.17;;;;;;;2.88;68.69;99928.12;1780712;78;20888;-60
2022/11/21 10:42:27;;;;;;;11.95;5.15;;;;;;;2.88;68.76;99914.30;1776408;79;21090;-61
2022/11/21 10:47:40;;;;;;;10.95;5.75;;;;;;;2.72;69.11;99900.87;1778285;79;21090;-61
2022/11/21 10:50:15;;;;;;;10.58;5.30;;;;;;;2.54;69.58;99892.31;1775479;80;21019;-60
2022/11/21 10:52:49;;;;;;;9.45;4.12;;;;;;;2.54;69.78;99895.35;1775288;80;20995;-61
2022/11/21 10:55:17;;;;;;;14.15;6.28;;;;;;;2.64;69.51;99883.56;1782592;79;21083;-61
2022/11/21 10:57:51;;;;;;;11.30;6.90;;;;;;;2.60;69.55;99875.55;1786817;80;20945;-60
2022/11/21 11:00:23;;;;;;;;;;;;;;;2.51;69.89;99877.37;1783104;80;20921;-61
2022/11/21 11:03:04;;;;;;;12.58;6.10;;;;;;;2.43;70.47;99863.95;1778174;79;20125;-60
2022/11/21 11:05:29;;;;;;;11.57;6.35;;;;;;;2.33;70.92;99850.16;1743650;80;21042;-61
2022/11/21 11:08:10;;;;;;;12.50;6.12;;;;;;;2.25;71.32;99845.84;1766824;80;21237;-60
2022/11/21 11:10:44;;;;;;;12.47;5.78;;;;;;;2.27;71.29;99841.43;1714003;81;21578;-60
2022/11/21 11:16:14;;;;;;;9.05;4.25;;;;;;;2.17;71.83;99841.52;1732975;81;21034;-61
2022/11/21 11:18:58;;;;;;;11.90;6.12;;;;;;;2.11;72.23;99836.21;1735682;82;21484;-60
2022/11/21 11:21:32;;;;;;;12.37;4.08;;;;;;;2.14;72.25;99827.44;1723518;81;21269;-61
2022/11/21 11:24:13;;;;;;;9.58;4.67;;;;;;;2.18;72.16;99824.57;1714682;82;21089;-60
2022/11/21 11:26:52;;;;;;;15.13;4.55;;;;;;;2.25;72.38;99830.73;1718307;81;21057;-61
2022/11/21 11:29:31;;;;;;;11.70;5.80;;;;;;;2.26;72.57;99826.77;1727885;82;21057;-61
2022/11/21 11:32:14;;;;;;;11.43;4.37;;;;;;;2.25;72.50;99823.78;1724239;82;21042;-61
2022/11/21 11:34:53;;;;;;;10.25;4.65;;;;;;;2.22;72.57;99821.38;1732601;82;21085;-61
2022/11/21 11:37:41;;;;;;;10.50;5.70;;;;;;;2.26;72.71;99822.87;1706725;83;21074;-61
2022/11/21 11:40:32;;;;;;;9.68;4.90;;;;;;;2.36;72.39;99814.95;1692081;82;21083;-61
2022/11/21 11:52:33;;;;;;;6.35;3.27;;;;;;;2.27;72.27;99751.86;1700433;83;21058;-62
2022/11/21 11:55:04;;;;;;;6.35;2.55;;;;;;;2.29;72.27;99739.63;1744588;82;21021;-61
2022/11/21 11:57:31;;;;;;;7.85;2.83;;;;;;;2.34;72.23;99725.92;1699945;83;21100;-62
2022/11/21 12:00:23;;;;;;;6.28;2.08;;;;;;;2.38;72.27;99715.73;1748789;82;21062;-61
2022/11/21 12:03:07;;;;;;;6.22;2.98;;;;;;;2.36;72.23;99692.91;1745080;82;21142;-61
2022/11/21 12:05:34;;;;;;;6.47;2.35;;;;;;;2.27;72.00;99684.37;1744810;81;20976;-61
2022/11/21 12:08:20;;;;;;;6.50;2.02;;;;;;;2.18;72.28;99670.59;1743299;80;21051;-61
2022/11/21 12:13:37;;;;;;;6.78;3.00;;;;;;;2.23;72.34;99659.02;1734765;82;21013;-61
2022/11/21 12:16:05;;;;;;;7.10;3.15;;;;;;;2.28;72.36;99635.87;1730022;82;21268;-61
2022/11/21 12:18:39;;;;;;;7.15;3.00;;;;;;;2.24;72.34;99631.32;1726391;81;22384;-61